sensor_id;sensor_type;location;lat;lon;timestamp;P1;durP1;ratioP1;P2;durP2;ratioP2
29958;SDS011;16815;51.100;6.516;2024-03-02T00:01:24;4.73;;;1.87;;
29958;SDS011;16815;51.100;6.516;2024-03-02T00:03:50;3.57;;;1.57;;
29958;SDS011;16815;51.100;6.516;2024-03-02T00:06:19;6.20;;;1.90;;
29958;SDS011;16815;51.100;6.516;2024-03-02T00:08:46;3.00;;;1.60;;
29958;SDS011;16815;51.100;6.516;2024-03-02T00:11:12;1.50;;;1.40;;
29958;SDS011;16815;51.100;6.516;2024-03-02T00:13:40;3.97;;;1.63;;
29958;SDS011;16815;51.100;6.516;2024-03-02T00:16:06;1.57;;;1.47;;
29958;SDS011;16815;51.100;6.516;2024-03-02T00:18:33;2.10;;;1.63;;
29958;SDS011;16815;51.100;6.516;2024-03-02T00:20:59;1.73;;;1.57;;
29958;SDS011;16815;51.100;6.516;2024-03-02T00:23:28;1.57;;;1.47;;
29958;SDS011;16815;51.100;6.516;2024-03-02T00:25:55;1.70;;;1.50;;
29958;SDS011;16815;51.100;6.516;2024-03-02T00:31:03;4.27;;;1.90;;
29958;SDS011;16815;51.100;6.516;2024-03-02T00:33:30;2.23;;;1.50;;
29958;SDS011;16815;51.100;6.516;2024-03-02T00:35:56;2.13;;;1.63;;
29958;SDS011;16815;51.100;6.516;2024-03-02T00:38:22;2.80;;;1.70;;
29958;SDS011;16815;51.100;6.516;2024-03-02T00:40:49;3.10;;;1.50;;
29958;SDS011;16815;51.100;6.516;2024-03-02T00:45:43;2.37;;;1.67;;
29958;SDS011;16815;51.100;6.516;2024-03-02T00:48:09;2.27;;;1.50;;
29958;SDS011;16815;51.100;6.516;2024-03-02T00:50:36;2.17;;;1.57;;
29958;SDS011;16815;51.100;6.516;2024-03-02T00:53:02;2.60;;;1.63;;
29958;SDS011;16815;51.100;6.516;2024-03-02T00:55:28;3.43;;;1.60;;
29958;SDS011;16815;51.100;6.516;2024-03-02T00:57:54;2.33;;;1.40;;
29958;SDS011;16815;51.100;6.516;2024-03-02T01:00:20;3.60;;;1.60;;
29958;SDS011;16815;51.100;6.516;2024-03-02T01:02:46;1.70;;;1.57;;
29958;SDS011;16815;51.100;6.516;2024-03-02T01:05:12;3.87;;;1.77;;
29958;SDS011;16815;51.100;6.516;2024-03-02T01:07:38;2.40;;;1.50;;
29958;SDS011;16815;51.100;6.516;2024-03-02T01:10:05;2.80;;;1.90;;
29958;SDS011;16815;51.100;6.516;2024-03-02T01:12:31;5.87;;;1.80;;
29958;SDS011;16815;51.100;6.516;2024-03-02T01:14:57;2.00;;;1.63;;
29958;SDS011;16815;51.100;6.516;2024-03-02T01:17:22;2.03;;;1.57;;
29958;SDS011;16815;51.100;6.516;2024-03-02T01:19:48;2.80;;;1.77;;
29958;SDS011;16815;51.100;6.516;2024-03-02T01:22:14;2.07;;;1.60;;
29958;SDS011;16815;51.100;6.516;2024-03-02T01:24:40;2.47;;;1.60;;
29958;SDS011;16815;51.100;6.516;2024-03-02T01:27:06;1.67;;;1.50;;
29958;SDS011;16815;51.100;6.516;2024-03-02T01:29:32;1.93;;;1.77;;
29958;SDS011;16815;51.100;6.516;2024-03-02T01:31:58;2.13;;;1.60;;
29958;SDS011;16815;51.100;6.516;2024-03-02T01:34:24;1.97;;;1.67;;
29958;SDS011;16815;51.100;6.516;2024-03-02T01:36:50;2.27;;;1.77;;
29958;SDS011;16815;51.100;6.516;2024-03-02T01:39:16;3.63;;;1.70;;
29958;SDS011;16815;51.100;6.516;2024-03-02T01:41:42;2.00;;;1.63;;
29958;SDS011;16815;51.100;6.516;2024-03-02T01:44:08;2.03;;;1.83;;
29958;SDS011;16815;51.100;6.516;2024-03-02T01:46:34;1.87;;;1.60;;
29958;SDS011;16815;51.100;6.516;2024-03-02T01:49:01;3.47;;;1.67;;
29958;SDS011;16815;51.100;6.516;2024-03-02T01:51:27;6.90;;;2.07;;
29958;SDS011;16815;51.100;6.516;2024-03-02T01:53:53;5.20;;;2.00;;
29958;SDS011;16815;51.100;6.516;2024-03-02T01:56:19;4.20;;;2.00;;
29958;SDS011;16815;51.100;6.516;2024-03-02T01:58:45;14.27;;;2.60;;
29958;SDS011;16815;51.100;6.516;2024-03-02T02:01:11;5.50;;;1.97;;
29958;SDS011;16815;51.100;6.516;2024-03-02T02:03:37;3.57;;;2.00;;
29958;SDS011;16815;51.100;6.516;2024-03-02T02:06:03;4.13;;;2.00;;
29958;SDS011;16815;51.100;6.516;2024-03-02T02:08:29;6.37;;;2.53;;
29958;SDS011;16815;51.100;6.516;2024-03-02T02:10:55;4.73;;;1.90;;
29958;SDS011;16815;51.100;6.516;2024-03-02T02:13:21;5.00;;;2.27;;
29958;SDS011;16815;51.100;6.516;2024-03-02T02:15:47;4.07;;;2.20;;
29958;SDS011;16815;51.100;6.516;2024-03-02T02:18:13;2.53;;;1.90;;
29958;SDS011;16815;51.100;6.516;2024-03-02T02:20:39;6.27;;;2.20;;
29958;SDS011;16815;51.100;6.516;2024-03-02T02:23:05;2.50;;;1.60;;
29958;SDS011;16815;51.100;6.516;2024-03-02T02:25:34;1.80;;;1.70;;
29958;SDS011;16815;51.100;6.516;2024-03-02T02:28:00;5.67;;;2.27;;
29958;SDS011;16815;51.100;6.516;2024-03-02T02:30:28;5.37;;;1.60;;
29958;SDS011;16815;51.100;6.516;2024-03-02T02:32:57;4.80;;;1.73;;
29958;SDS011;16815;51.100;6.516;2024-03-02T02:35:23;3.83;;;1.63;;
29958;SDS011;16815;51.100;6.516;2024-03-02T02:37:49;6.57;;;1.60;;
29958;SDS011;16815;51.100;6.516;2024-03-02T02:40:16;2.57;;;1.60;;
29958;SDS011;16815;51.100;6.516;2024-03-02T02:42:44;2.43;;;1.67;;
29958;SDS011;16815;51.100;6.516;2024-03-02T02:45:10;6.17;;;1.80;;
29958;SDS011;16815;51.100;6.516;2024-03-02T02:47:38;3.80;;;1.63;;
29958;SDS011;16815;51.100;6.516;2024-03-02T02:50:04;7.30;;;1.80;;
29958;SDS011;16815;51.100;6.516;2024-03-02T02:52:31;3.37;;;1.87;;
29958;SDS011;16815;51.100;6.516;2024-03-02T02:54:58;9.43;;;1.97;;
29958;SDS011;16815;51.100;6.516;2024-03-02T02:57:24;3.20;;;1.43;;
29958;SDS011;16815;51.100;6.516;2024-03-02T02:59:50;2.90;;;1.67;;
29958;SDS011;16815;51.100;6.516;2024-03-02T03:02:16;4.00;;;1.50;;
29958;SDS011;16815;51.100;6.516;2024-03-02T03:04:42;9.07;;;1.50;;
29958;SDS011;16815;51.100;6.516;2024-03-02T03:07:08;3.60;;;1.50;;
29958;SDS011;16815;51.100;6.516;2024-03-02T03:09:36;2.37;;;1.40;;
29958;SDS011;16815;51.100;6.516;2024-03-02T03:12:03;1.27;;;1.00;;
29958;SDS011;16815;51.100;6.516;2024-03-02T03:14:29;1.00;;;1.00;;
29958;SDS011;16815;51.100;6.516;2024-03-02T03:16:56;1.00;;;1.00;;
29958;SDS011;16815;51.100;6.516;2024-03-02T03:19:22;1.50;;;1.00;;
29958;SDS011;16815;51.100;6.516;2024-03-02T03:21:47;1.67;;;1.10;;
29958;SDS011;16815;51.100;6.516;2024-03-02T03:24:13;2.47;;;1.00;;
29958;SDS011;16815;51.100;6.516;2024-03-02T03:26:39;2.17;;;1.00;;
29958;SDS011;16815;51.100;6.516;2024-03-02T03:29:05;1.57;;;0.97;;
29958;SDS011;16815;51.100;6.516;2024-03-02T03:31:31;1.30;;;1.10;;
29958;SDS011;16815;51.100;6.516;2024-03-02T03:33:57;1.80;;;1.00;;
29958;SDS011;16815;51.100;6.516;2024-03-02T03:36:23;2.00;;;1.13;;
29958;SDS011;16815;51.100;6.516;2024-03-02T03:38:49;1.43;;;1.17;;
29958;SDS011;16815;51.100;6.516;2024-03-02T03:41:15;1.40;;;1.30;;
29958;SDS011;16815;51.100;6.516;2024-03-02T03:43:41;1.20;;;1.10;;
29958;SDS011;16815;51.100;6.516;2024-03-02T03:46:07;1.10;;;1.00;;
29958;SDS011;16815;51.100;6.516;2024-03-02T03:48:33;1.73;;;1.10;;
29958;SDS011;16815;51.100;6.516;2024-03-02T03:50:59;1.00;;;1.00;;
29958;SDS011;16815;51.100;6.516;2024-03-02T03:53:25;1.47;;;1.20;;
29958;SDS011;16815;51.100;6.516;2024-03-02T03:55:51;2.13;;;1.60;;
29958;SDS011;16815;51.100;6.516;2024-03-02T03:58:17;1.77;;;1.37;;
29958;SDS011;16815;51.100;6.516;2024-03-02T04:00:43;3.83;;;1.37;;
29958;SDS011;16815;51.100;6.516;2024-03-02T04:03:09;3.93;;;1.47;;
29958;SDS011;16815;51.100;6.516;2024-03-02T04:05:35;1.40;;;1.30;;
29958;SDS011;16815;51.100;6.516;2024-03-02T04:08:01;2.17;;;1.47;;
29958;SDS011;16815;51.100;6.516;2024-03-02T04:10:27;3.03;;;1.37;;
29958;SDS011;16815;51.100;6.516;2024-03-02T04:12:55;2.67;;;1.43;;
29958;SDS011;16815;51.100;6.516;2024-03-02T04:15:21;1.77;;;1.50;;
29958;SDS011;16815;51.100;6.516;2024-03-02T04:17:48;4.40;;;1.53;;
29958;SDS011;16815;51.100;6.516;2024-03-02T04:20:14;4.20;;;1.33;;
29958;SDS011;16815;51.100;6.516;2024-03-02T04:22:40;3.97;;;1.63;;
29958;SDS011;16815;51.100;6.516;2024-03-02T04:25:06;3.10;;;1.53;;
29958;SDS011;16815;51.100;6.516;2024-03-02T04:27:32;4.10;;;1.70;;
29958;SDS011;16815;51.100;6.516;2024-03-02T04:29:58;3.70;;;2.00;;
29958;SDS011;16815;51.100;6.516;2024-03-02T04:32:25;7.00;;;1.70;;
29958;SDS011;16815;51.100;6.516;2024-03-02T04:34:51;2.00;;;1.80;;
29958;SDS011;16815;51.100;6.516;2024-03-02T04:37:17;4.43;;;2.00;;
29958;SDS011;16815;51.100;6.516;2024-03-02T04:39:43;5.97;;;2.00;;
29958;SDS011;16815;51.100;6.516;2024-03-02T04:42:09;4.03;;;1.73;;
29958;SDS011;16815;51.100;6.516;2024-03-02T04:44:35;6.37;;;1.80;;
29958;SDS011;16815;51.100;6.516;2024-03-02T04:47:03;4.37;;;1.70;;
29958;SDS011;16815;51.100;6.516;2024-03-02T04:49:29;3.43;;;1.60;;
29958;SDS011;16815;51.100;6.516;2024-03-02T04:51:55;5.07;;;1.80;;
29958;SDS011;16815;51.100;6.516;2024-03-02T04:54:21;4.77;;;2.00;;
29958;SDS011;16815;51.100;6.516;2024-03-02T04:56:48;4.40;;;1.60;;
29958;SDS011;16815;51.100;6.516;2024-03-02T04:59:17;2.03;;;1.60;;
29958;SDS011;16815;51.100;6.516;2024-03-02T05:01:43;2.13;;;1.50;;
29958;SDS011;16815;51.100;6.516;2024-03-02T05:04:09;5.17;;;2.10;;
29958;SDS011;16815;51.100;6.516;2024-03-02T05:06:38;4.10;;;1.70;;
29958;SDS011;16815;51.100;6.516;2024-03-02T05:09:10;3.77;;;1.77;;
29958;SDS011;16815;51.100;6.516;2024-03-02T05:11:36;2.63;;;1.93;;
29958;SDS011;16815;51.100;6.516;2024-03-02T05:14:02;2.63;;;2.07;;
29958;SDS011;16815;51.100;6.516;2024-03-02T05:16:28;3.23;;;1.67;;
29958;SDS011;16815;51.100;6.516;2024-03-02T05:18:54;2.40;;;1.67;;
29958;SDS011;16815;51.100;6.516;2024-03-02T05:21:20;1.63;;;1.40;;
29958;SDS011;16815;51.100;6.516;2024-03-02T05:23:46;2.97;;;1.60;;
29958;SDS011;16815;51.100;6.516;2024-03-02T05:26:12;4.50;;;1.60;;
29958;SDS011;16815;51.100;6.516;2024-03-02T05:28:39;1.87;;;1.70;;
29958;SDS011;16815;51.100;6.516;2024-03-02T05:31:05;2.40;;;1.70;;
29958;SDS011;16815;51.100;6.516;2024-03-02T05:33:31;5.00;;;2.00;;
29958;SDS011;16815;51.100;6.516;2024-03-02T05:35:58;3.33;;;1.70;;
29958;SDS011;16815;51.100;6.516;2024-03-02T05:38:24;2.07;;;1.63;;
29958;SDS011;16815;51.100;6.516;2024-03-02T05:40:50;3.53;;;2.00;;
29958;SDS011;16815;51.100;6.516;2024-03-02T05:43:16;2.30;;;1.60;;
29958;SDS011;16815;51.100;6.516;2024-03-02T05:45:43;1.60;;;1.50;;
29958;SDS011;16815;51.100;6.516;2024-03-02T05:48:09;5.27;;;1.70;;
29958;SDS011;16815;51.100;6.516;2024-03-02T05:50:35;3.47;;;1.83;;
29958;SDS011;16815;51.100;6.516;2024-03-02T05:53:01;1.80;;;1.70;;
29958;SDS011;16815;51.100;6.516;2024-03-02T05:55:27;6.10;;;1.83;;
29958;SDS011;16815;51.100;6.516;2024-03-02T05:57:53;2.87;;;1.80;;
29958;SDS011;16815;51.100;6.516;2024-03-02T06:00:31;5.27;;;1.70;;
29958;SDS011;16815;51.100;6.516;2024-03-02T06:02:57;5.60;;;1.97;;
29958;SDS011;16815;51.100;6.516;2024-03-02T06:05:23;3.30;;;1.70;;
29958;SDS011;16815;51.100;6.516;2024-03-02T06:07:49;1.83;;;1.60;;
29958;SDS011;16815;51.100;6.516;2024-03-02T06:10:15;1.80;;;1.70;;
29958;SDS011;16815;51.100;6.516;2024-03-02T06:12:42;8.30;;;2.57;;
29958;SDS011;16815;51.100;6.516;2024-03-02T06:15:08;2.70;;;1.93;;
29958;SDS011;16815;51.100;6.516;2024-03-02T06:17:35;2.90;;;1.80;;
29958;SDS011;16815;51.100;6.516;2024-03-02T06:20:01;2.30;;;1.77;;
29958;SDS011;16815;51.100;6.516;2024-03-02T06:22:27;5.33;;;1.90;;
29958;SDS011;16815;51.100;6.516;2024-03-02T06:24:53;2.27;;;1.97;;
29958;SDS011;16815;51.100;6.516;2024-03-02T06:27:19;6.43;;;2.27;;
29958;SDS011;16815;51.100;6.516;2024-03-02T06:29:45;5.23;;;1.97;;
29958;SDS011;16815;51.100;6.516;2024-03-02T06:32:11;4.70;;;1.70;;
29958;SDS011;16815;51.100;6.516;2024-03-02T06:34:37;2.97;;;1.90;;
29958;SDS011;16815;51.100;6.516;2024-03-02T06:37:03;3.57;;;1.90;;
29958;SDS011;16815;51.100;6.516;2024-03-02T06:39:29;3.10;;;1.70;;
29958;SDS011;16815;51.100;6.516;2024-03-02T06:41:56;4.57;;;1.70;;
29958;SDS011;16815;51.100;6.516;2024-03-02T06:44:22;4.30;;;1.70;;
29958;SDS011;16815;51.100;6.516;2024-03-02T06:46:48;1.70;;;1.60;;
29958;SDS011;16815;51.100;6.516;2024-03-02T06:49:14;5.33;;;1.80;;
29958;SDS011;16815;51.100;6.516;2024-03-02T06:51:40;1.60;;;1.50;;
29958;SDS011;16815;51.100;6.516;2024-03-02T06:54:07;3.10;;;1.90;;
29958;SDS011;16815;51.100;6.516;2024-03-02T06:56:33;3.93;;;1.60;;
29958;SDS011;16815;51.100;6.516;2024-03-02T06:58:59;2.10;;;1.57;;
29958;SDS011;16815;51.100;6.516;2024-03-02T07:01:25;2.10;;;1.40;;
29958;SDS011;16815;51.100;6.516;2024-03-02T07:03:51;1.70;;;1.60;;
29958;SDS011;16815;51.100;6.516;2024-03-02T07:06:17;2.67;;;1.73;;
29958;SDS011;16815;51.100;6.516;2024-03-02T07:08:43;1.60;;;1.50;;
29958;SDS011;16815;51.100;6.516;2024-03-02T07:11:09;4.00;;;1.70;;
29958;SDS011;16815;51.100;6.516;2024-03-02T07:13:35;2.27;;;1.63;;
29958;SDS011;16815;51.100;6.516;2024-03-02T07:16:01;1.73;;;1.63;;
29958;SDS011;16815;51.100;6.516;2024-03-02T07:18:35;3.60;;;1.30;;
29958;SDS011;16815;51.100;6.516;2024-03-02T07:21:10;2.27;;;1.50;;
29958;SDS011;16815;51.100;6.516;2024-03-02T07:23:36;2.10;;;1.57;;
29958;SDS011;16815;51.100;6.516;2024-03-02T07:26:02;2.53;;;1.80;;
29958;SDS011;16815;51.100;6.516;2024-03-02T07:28:28;1.40;;;1.30;;
29958;SDS011;16815;51.100;6.516;2024-03-02T07:30:58;1.57;;;1.27;;
29958;SDS011;16815;51.100;6.516;2024-03-02T07:33:24;2.07;;;1.60;;
29958;SDS011;16815;51.100;6.516;2024-03-02T07:35:50;1.63;;;1.53;;
29958;SDS011;16815;51.100;6.516;2024-03-02T07:38:16;3.10;;;1.60;;
29958;SDS011;16815;51.100;6.516;2024-03-02T07:40:42;3.07;;;1.33;;
29958;SDS011;16815;51.100;6.516;2024-03-02T07:43:08;2.90;;;1.30;;
29958;SDS011;16815;51.100;6.516;2024-03-02T07:45:34;2.77;;;1.23;;
29958;SDS011;16815;51.100;6.516;2024-03-02T07:48:01;2.13;;;1.53;;
29958;SDS011;16815;51.100;6.516;2024-03-02T07:50:29;1.47;;;1.20;;
29958;SDS011;16815;51.100;6.516;2024-03-02T07:53:00;1.50;;;1.40;;
29958;SDS011;16815;51.100;6.516;2024-03-02T07:55:25;1.80;;;1.47;;
29958;SDS011;16815;51.100;6.516;2024-03-02T07:57:52;1.50;;;1.37;;
29958;SDS011;16815;51.100;6.516;2024-03-02T08:00:18;3.77;;;1.63;;
29958;SDS011;16815;51.100;6.516;2024-03-02T08:02:44;2.00;;;1.37;;
29958;SDS011;16815;51.100;6.516;2024-03-02T08:05:10;2.77;;;1.73;;
29958;SDS011;16815;51.100;6.516;2024-03-02T08:07:36;4.30;;;1.60;;
29958;SDS011;16815;51.100;6.516;2024-03-02T08:10:02;1.57;;;1.30;;
29958;SDS011;16815;51.100;6.516;2024-03-02T08:12:28;2.87;;;1.40;;
29958;SDS011;16815;51.100;6.516;2024-03-02T08:14:54;1.53;;;1.10;;
29958;SDS011;16815;51.100;6.516;2024-03-02T08:17:20;6.20;;;1.70;;
29958;SDS011;16815;51.100;6.516;2024-03-02T08:19:47;5.33;;;1.63;;
29958;SDS011;16815;51.100;6.516;2024-03-02T08:22:13;6.87;;;1.87;;
29958;SDS011;16815;51.100;6.516;2024-03-02T08:24:40;4.33;;;1.57;;
29958;SDS011;16815;51.100;6.516;2024-03-02T08:27:06;2.30;;;1.73;;
29958;SDS011;16815;51.100;6.516;2024-03-02T08:29:32;5.37;;;1.70;;
29958;SDS011;16815;51.100;6.516;2024-03-02T08:31:58;9.83;;;2.00;;
29958;SDS011;16815;51.100;6.516;2024-03-02T08:34:24;2.67;;;1.70;;
29958;SDS011;16815;51.100;6.516;2024-03-02T08:36:50;3.10;;;1.50;;
29958;SDS011;16815;51.100;6.516;2024-03-02T08:39:16;2.23;;;1.50;;
29958;SDS011;16815;51.100;6.516;2024-03-02T08:41:44;2.27;;;1.63;;
29958;SDS011;16815;51.100;6.516;2024-03-02T08:44:10;1.67;;;1.57;;
29958;SDS011;16815;51.100;6.516;2024-03-02T08:46:36;5.43;;;2.00;;
29958;SDS011;16815;51.100;6.516;2024-03-02T08:49:02;3.43;;;1.83;;
29958;SDS011;16815;51.100;6.516;2024-03-02T08:51:28;2.33;;;1.67;;
29958;SDS011;16815;51.100;6.516;2024-03-02T08:53:54;5.27;;;2.00;;
29958;SDS011;16815;51.100;6.516;2024-03-02T08:56:20;4.03;;;1.43;;
29958;SDS011;16815;51.100;6.516;2024-03-02T08:58:48;4.97;;;1.70;;
29958;SDS011;16815;51.100;6.516;2024-03-02T09:01:14;4.23;;;1.90;;
29958;SDS011;16815;51.100;6.516;2024-03-02T09:03:41;3.80;;;1.60;;
29958;SDS011;16815;51.100;6.516;2024-03-02T09:06:09;4.87;;;1.30;;
29958;SDS011;16815;51.100;6.516;2024-03-02T09:08:35;4.83;;;1.67;;
29958;SDS011;16815;51.100;6.516;2024-03-02T09:11:07;3.00;;;1.60;;
29958;SDS011;16815;51.100;6.516;2024-03-02T09:13:33;4.90;;;1.40;;
29958;SDS011;16815;51.100;6.516;2024-03-02T09:16:00;2.33;;;1.83;;
29958;SDS011;16815;51.100;6.516;2024-03-02T09:18:26;2.97;;;1.70;;
29958;SDS011;16815;51.100;6.516;2024-03-02T09:20:52;4.33;;;1.30;;
29958;SDS011;16815;51.100;6.516;2024-03-02T09:23:18;1.20;;;1.10;;
29958;SDS011;16815;51.100;6.516;2024-03-02T09:25:44;2.90;;;1.30;;
29958;SDS011;16815;51.100;6.516;2024-03-02T09:28:10;1.30;;;1.20;;
29958;SDS011;16815;51.100;6.516;2024-03-02T09:30:36;2.53;;;1.20;;
29958;SDS011;16815;51.100;6.516;2024-03-02T09:33:03;1.50;;;1.40;;
29958;SDS011;16815;51.100;6.516;2024-03-02T09:35:29;3.03;;;1.30;;
29958;SDS011;16815;51.100;6.516;2024-03-02T09:37:55;2.40;;;1.40;;
29958;SDS011;16815;51.100;6.516;2024-03-02T09:40:21;3.13;;;1.45;;
29958;SDS011;16815;51.100;6.516;2024-03-02T09:42:47;1.60;;;1.33;;
29958;SDS011;16815;51.100;6.516;2024-03-02T09:45:22;2.70;;;1.30;;
29958;SDS011;16815;51.100;6.516;2024-03-02T09:47:48;1.87;;;1.30;;
29958;SDS011;16815;51.100;6.516;2024-03-02T09:50:15;2.87;;;1.17;;
29958;SDS011;16815;51.100;6.516;2024-03-02T09:52:44;5.23;;;1.20;;
29958;SDS011;16815;51.100;6.516;2024-03-02T09:55:13;3.43;;;1.30;;
29958;SDS011;16815;51.100;6.516;2024-03-02T09:57:42;2.20;;;0.93;;
29958;SDS011;16815;51.100;6.516;2024-03-02T10:00:08;1.63;;;1.10;;
29958;SDS011;16815;51.100;6.516;2024-03-02T10:02:39;2.47;;;1.33;;
29958;SDS011;16815;51.100;6.516;2024-03-02T10:05:06;1.30;;;1.10;;
29958;SDS011;16815;51.100;6.516;2024-03-02T10:07:32;1.97;;;1.10;;
29958;SDS011;16815;51.100;6.516;2024-03-02T10:09:58;1.27;;;1.10;;
29958;SDS011;16815;51.100;6.516;2024-03-02T10:12:37;1.30;;;1.00;;
29958;SDS011;16815;51.100;6.516;2024-03-02T10:15:03;3.03;;;1.10;;
29958;SDS011;16815;51.100;6.516;2024-03-02T10:17:30;5.83;;;1.20;;
29958;SDS011;16815;51.100;6.516;2024-03-02T10:19:56;2.53;;;1.20;;
29958;SDS011;16815;51.100;6.516;2024-03-02T10:22:23;3.47;;;1.23;;
29958;SDS011;16815;51.100;6.516;2024-03-02T10:24:49;1.37;;;0.90;;
29958;SDS011;16815;51.100;6.516;2024-03-02T10:27:33;3.27;;;1.30;;
29958;SDS011;16815;51.100;6.516;2024-03-02T10:30:00;2.33;;;1.13;;
29958;SDS011;16815;51.100;6.516;2024-03-02T10:32:33;3.73;;;1.03;;
29958;SDS011;16815;51.100;6.516;2024-03-02T10:34:59;2.83;;;1.20;;
29958;SDS011;16815;51.100;6.516;2024-03-02T10:37:25;1.97;;;1.10;;
29958;SDS011;16815;51.100;6.516;2024-03-02T10:39:51;3.73;;;1.50;;
29958;SDS011;16815;51.100;6.516;2024-03-02T10:42:17;1.90;;;1.20;;
29958;SDS011;16815;51.100;6.516;2024-03-02T10:44:45;1.90;;;1.00;;
29958;SDS011;16815;51.100;6.516;2024-03-02T10:47:11;1.40;;;1.00;;
29958;SDS011;16815;51.100;6.516;2024-03-02T10:49:38;2.07;;;1.13;;
29958;SDS011;16815;51.100;6.516;2024-03-02T10:52:04;2.50;;;1.00;;
29958;SDS011;16815;51.100;6.516;2024-03-02T10:54:30;2.10;;;1.30;;
29958;SDS011;16815;51.100;6.516;2024-03-02T10:57:01;3.23;;;1.30;;
29958;SDS011;16815;51.100;6.516;2024-03-02T11:01:57;2.57;;;1.10;;
29958;SDS011;16815;51.100;6.516;2024-03-02T11:04:24;2.60;;;1.00;;
29958;SDS011;16815;51.100;6.516;2024-03-02T11:06:51;1.63;;;1.10;;
29958;SDS011;16815;51.100;6.516;2024-03-02T11:09:18;2.83;;;1.00;;
29958;SDS011;16815;51.100;6.516;2024-03-02T11:11:45;3.23;;;1.10;;
29958;SDS011;16815;51.100;6.516;2024-03-02T11:14:15;1.33;;;0.93;;
29958;SDS011;16815;51.100;6.516;2024-03-02T11:16:42;2.10;;;1.07;;
29958;SDS011;16815;51.100;6.516;2024-03-02T11:19:12;1.57;;;1.30;;
29958;SDS011;16815;51.100;6.516;2024-03-02T11:21:38;2.07;;;1.07;;
29958;SDS011;16815;51.100;6.516;2024-03-02T11:26:50;2.80;;;1.10;;
29958;SDS011;16815;51.100;6.516;2024-03-02T11:32:01;2.07;;;1.00;;
29958;SDS011;16815;51.100;6.516;2024-03-02T11:34:31;1.23;;;0.87;;
29958;SDS011;16815;51.100;6.516;2024-03-02T11:36:57;2.67;;;1.20;;
29958;SDS011;16815;51.100;6.516;2024-03-02T11:39:24;2.93;;;1.37;;
29958;SDS011;16815;51.100;6.516;2024-03-02T11:41:50;2.87;;;1.07;;
29958;SDS011;16815;51.100;6.516;2024-03-02T11:44:16;1.27;;;1.00;;
29958;SDS011;16815;51.100;6.516;2024-03-02T11:46:44;4.00;;;1.20;;
29958;SDS011;16815;51.100;6.516;2024-03-02T11:49:14;2.17;;;1.10;;
29958;SDS011;16815;51.100;6.516;2024-03-02T11:51:40;2.47;;;1.00;;
29958;SDS011;16815;51.100;6.516;2024-03-02T11:54:16;2.20;;;1.00;;
29958;SDS011;16815;51.100;6.516;2024-03-02T11:56:42;2.73;;;1.10;;
29958;SDS011;16815;51.100;6.516;2024-03-02T11:59:09;2.50;;;1.07;;
29958;SDS011;16815;51.100;6.516;2024-03-02T12:01:35;1.30;;;1.03;;
29958;SDS011;16815;51.100;6.516;2024-03-02T12:04:01;2.90;;;1.20;;
29958;SDS011;16815;51.100;6.516;2024-03-02T12:06:28;2.10;;;1.20;;
29958;SDS011;16815;51.100;6.516;2024-03-02T12:08:55;3.60;;;1.27;;
29958;SDS011;16815;51.100;6.516;2024-03-02T12:11:21;1.77;;;1.10;;
29958;SDS011;16815;51.100;6.516;2024-03-02T12:13:53;4.37;;;1.13;;
29958;SDS011;16815;51.100;6.516;2024-03-02T12:16:23;2.03;;;1.20;;
29958;SDS011;16815;51.100;6.516;2024-03-02T12:18:49;2.43;;;1.37;;
29958;SDS011;16815;51.100;6.516;2024-03-02T12:21:15;1.77;;;1.13;;
29958;SDS011;16815;51.100;6.516;2024-03-02T12:23:41;2.80;;;1.30;;
29958;SDS011;16815;51.100;6.516;2024-03-02T12:26:07;1.77;;;1.27;;
29958;SDS011;16815;51.100;6.516;2024-03-02T12:28:33;1.20;;;1.10;;
29958;SDS011;16815;51.100;6.516;2024-03-02T12:30:59;2.17;;;1.20;;
29958;SDS011;16815;51.100;6.516;2024-03-02T12:33:25;1.20;;;1.10;;
29958;SDS011;16815;51.100;6.516;2024-03-02T12:35:52;1.00;;;0.90;;
29958;SDS011;16815;51.100;6.516;2024-03-02T12:38:18;2.37;;;1.20;;
29958;SDS011;16815;51.100;6.516;2024-03-02T12:40:44;2.73;;;1.40;;
29958;SDS011;16815;51.100;6.516;2024-03-02T12:43:10;2.63;;;1.40;;
29958;SDS011;16815;51.100;6.516;2024-03-02T12:45:36;1.07;;;0.90;;
29958;SDS011;16815;51.100;6.516;2024-03-02T12:48:03;5.03;;;1.87;;
29958;SDS011;16815;51.100;6.516;2024-03-02T12:50:30;2.20;;;1.03;;
29958;SDS011;16815;51.100;6.516;2024-03-02T12:52:56;3.40;;;1.37;;
29958;SDS011;16815;51.100;6.516;2024-03-02T12:55:22;2.97;;;1.30;;
29958;SDS011;16815;51.100;6.516;2024-03-02T12:57:49;2.13;;;1.13;;
29958;SDS011;16815;51.100;6.516;2024-03-02T13:00:17;3.43;;;2.00;;
29958;SDS011;16815;51.100;6.516;2024-03-02T13:02:45;1.53;;;1.40;;
29958;SDS011;16815;51.100;6.516;2024-03-02T13:05:11;2.33;;;1.50;;
29958;SDS011;16815;51.100;6.516;2024-03-02T13:07:38;4.67;;;1.20;;
29958;SDS011;16815;51.100;6.516;2024-03-02T13:10:04;3.23;;;1.57;;
29958;SDS011;16815;51.100;6.516;2024-03-02T13:12:31;1.97;;;1.40;;
29958;SDS011;16815;51.100;6.516;2024-03-02T13:14:58;1.03;;;0.93;;
29958;SDS011;16815;51.100;6.516;2024-03-02T13:17:25;2.17;;;1.40;;
29958;SDS011;16815;51.100;6.516;2024-03-02T13:19:58;3.23;;;1.10;;
29958;SDS011;16815;51.100;6.516;2024-03-02T13:22:24;3.27;;;2.33;;
29958;SDS011;16815;51.100;6.516;2024-03-02T13:24:50;2.17;;;0.90;;
29958;SDS011;16815;51.100;6.516;2024-03-02T13:27:16;2.40;;;1.70;;
29958;SDS011;16815;51.100;6.516;2024-03-02T13:29:46;1.63;;;0.90;;
29958;SDS011;16815;51.100;6.516;2024-03-02T13:32:13;4.20;;;1.17;;
29958;SDS011;16815;51.100;6.516;2024-03-02T13:34:39;1.17;;;0.90;;
29958;SDS011;16815;51.100;6.516;2024-03-02T13:37:05;0.90;;;0.90;;
29958;SDS011;16815;51.100;6.516;2024-03-02T13:39:31;1.03;;;0.93;;
29958;SDS011;16815;51.100;6.516;2024-03-02T13:41:59;2.67;;;1.07;;
29958;SDS011;16815;51.100;6.516;2024-03-02T13:44:34;2.20;;;0.97;;
29958;SDS011;16815;51.100;6.516;2024-03-02T13:47:00;1.20;;;1.17;;
29958;SDS011;16815;51.100;6.516;2024-03-02T13:49:26;1.87;;;1.03;;
29958;SDS011;16815;51.100;6.516;2024-03-02T13:52:00;1.47;;;1.30;;
29958;SDS011;16815;51.100;6.516;2024-03-02T13:54:28;1.33;;;1.10;;
29958;SDS011;16815;51.100;6.516;2024-03-02T13:56:55;1.50;;;1.07;;
29958;SDS011;16815;51.100;6.516;2024-03-02T13:59:22;1.43;;;0.90;;
29958;SDS011;16815;51.100;6.516;2024-03-02T14:01:48;0.87;;;0.80;;
29958;SDS011;16815;51.100;6.516;2024-03-02T14:04:14;1.20;;;1.10;;
29958;SDS011;16815;51.100;6.516;2024-03-02T14:06:42;1.67;;;1.50;;
29958;SDS011;16815;51.100;6.516;2024-03-02T14:09:08;2.63;;;1.50;;
29958;SDS011;16815;51.100;6.516;2024-03-02T14:11:34;2.57;;;1.23;;
29958;SDS011;16815;51.100;6.516;2024-03-02T14:14:00;4.33;;;1.40;;
29958;SDS011;16815;51.100;6.516;2024-03-02T14:16:27;1.63;;;1.30;;
29958;SDS011;16815;51.100;6.516;2024-03-02T14:18:53;1.30;;;1.20;;
29958;SDS011;16815;51.100;6.516;2024-03-02T14:21:19;1.47;;;1.20;;
29958;SDS011;16815;51.100;6.516;2024-03-02T14:23:45;1.30;;;1.20;;
29958;SDS011;16815;51.100;6.516;2024-03-02T14:26:11;2.17;;;1.23;;
29958;SDS011;16815;51.100;6.516;2024-03-02T14:28:37;1.30;;;1.20;;
29958;SDS011;16815;51.100;6.516;2024-03-02T14:31:03;2.40;;;1.30;;
29958;SDS011;16815;51.100;6.516;2024-03-02T14:33:29;1.80;;;1.20;;
29958;SDS011;16815;51.100;6.516;2024-03-02T14:35:55;1.20;;;1.10;;
29958;SDS011;16815;51.100;6.516;2024-03-02T14:38:21;3.07;;;1.30;;
29958;SDS011;16815;51.100;6.516;2024-03-02T14:40:47;1.97;;;1.70;;
29958;SDS011;16815;51.100;6.516;2024-03-02T14:43:13;1.63;;;1.20;;
29958;SDS011;16815;51.100;6.516;2024-03-02T14:45:39;2.50;;;1.40;;
29958;SDS011;16815;51.100;6.516;2024-03-02T14:48:05;3.47;;;1.10;;
29958;SDS011;16815;51.100;6.516;2024-03-02T14:50:31;2.43;;;1.40;;
29958;SDS011;16815;51.100;6.516;2024-03-02T14:53:01;2.47;;;1.30;;
29958;SDS011;16815;51.100;6.516;2024-03-02T14:55:27;2.37;;;1.30;;
29958;SDS011;16815;51.100;6.516;2024-03-02T14:57:53;1.87;;;1.20;;